• Join FlightAware (Why Join?)
  • Login
  • US Flag 
01:18AM EDT


 

Airport Tracker/Info


-or-


 

Live Flight TrackerFlight Track Log ✈ KAL61 ✈ 26-Apr-2013 ✈ KLAX - SBGR / GRU

Flight Track Log - Related Links

Times and Time Zones

All times are in EDT time to prevent confusion due to time zone crossing. See the KAL61 flight status page for this flight to view local times or setup timezone preferences in your user account.

Time Position Orientation Groundspeed Altitude Reporting Facility
EDT Latitude Longitude Course Direction KTS MPH feet Rate Location/Type
10:12PM 33.9408 -118.4892 221° Southwest 195 224 2,500  Level Los Angeles Center
10:13PM 33.8978 -118.5347 221° Southwest 216 249 3,900 1,500 Climbing Los Angeles Center
10:14PM 33.8264 -118.5297 177° South 265 305 5,600 1,860 Climbing Los Angeles Center
10:15PM 33.7500 -118.5217 175° South 277 319 7,800 2,100 Climbing Los Angeles Center
10:16PM 33.6578 -118.4792 159° South 320 368 10,000 2,340 Climbing Los Angeles Center
10:17PM 33.6325 -118.3786 107° East 319 367 12,600 2,340 Climbing Los Angeles Center
10:18PM 33.6086 -118.2722 105° East 332 382 14,900 1,980 Climbing Los Angeles Center
10:19PM 33.5764 -118.1589 109° East 360 414 16,700 1,560 Climbing Los Angeles Center
10:20PM 33.5422 -118.0317 108° East 401 461 18,200 1,980 Climbing Los Angeles Center
10:21PM 33.4981 -117.8711 108° East 425 489 20,800 2,160 Climbing Los Angeles Center
10:22PM 33.4608 -117.7342 108° East 434 499 22,700 1,740 Climbing Los Angeles Center
10:23PM 33.4217 -117.5928 108° East 449 517 24,500 1,500 Climbing Los Angeles Center
10:25PM 33.3811 -117.4469 108° East 462 532 26,100 1,380 Climbing Los Angeles Center
10:26PM 33.3303 -117.2672 109° East 479 551 27,700 1,440 Climbing Los Angeles Center
10:27PM 33.2856 -117.1036 108° East 492 566 29,100 1,260 Climbing Los Angeles Center
10:28PM 33.2286 -116.9511 114° Southeast 506 582 30,400 1,320 Climbing Los Angeles Center
10:29PM 33.1644 -116.8006 117° Southeast 509 586 31,900 1,200 Climbing Los Angeles Center
10:30PM 33.0992 -116.6514 118° Southeast 505 581 33,000 480 Climbing Los Angeles Center
10:31PM 33.0253 -116.4825 118° Southeast 508 585 33,000  Level Los Angeles Center
10:32PM 32.9614 -116.3311 117° Southeast 516 594 33,000  Level Los Angeles Center
10:33PM 32.8819 -116.1597 119° Southeast 518 596 33,000  Level Los Angeles Center
10:34PM 32.8136 -116.0089 118° Southeast 517 595 33,000  Level Los Angeles Center
10:35PM 32.7458 -115.8586 118° Southeast 516 594 33,000 -60 Level Los Angeles Center
10:36PM 32.6778 -115.7072 118° Southeast 518 596 32,900 -120 Descending Los Angeles Center
10:38PM 32.5397 -115.5175 124° Southeast  Level FlightAware Approximate
10:45PM 32.0087 -114.5911 124° Southeast  Level FlightAware Approximate
10:46PM 31.9323 -114.4597 124° Southeast  Level FlightAware Approximate
10:47PM 31.8558 -114.3284 124° Southeast  Level FlightAware Approximate
10:48PM 31.7791 -114.1974 125° Southeast  Level FlightAware Approximate
10:49PM 31.7023 -114.0666 125° Southeast  Level FlightAware Approximate
10:50PM 31.6254 -113.9360 125° Southeast  Level FlightAware Approximate
10:51PM 31.5483 -113.8056 125° Southeast  Level FlightAware Approximate
10:52PM 31.4711 -113.6755 125° Southeast  Level FlightAware Approximate
10:53PM 31.3938 -113.5455 125° Southeast  Level FlightAware Approximate
10:54PM 31.3222 -113.4114 120° Southeast  Level FlightAware Approximate
10:55PM 31.2536 -113.2751 120° Southeast  Level FlightAware Approximate
10:56PM 31.1848 -113.1391 121° Southeast  Level FlightAware Approximate
10:57PM 31.1159 -113.0032 121° Southeast  Level FlightAware Approximate
10:58PM 31.0468 -112.8675 121° Southeast  Level FlightAware Approximate
10:59PM 30.9776 -112.7320 121° Southeast  Level FlightAware Approximate
11:00PM 30.9083 -112.5967 121° Southeast  Level FlightAware Approximate
11:01PM 30.8383 -112.4619 122° Southeast  Level FlightAware Approximate
11:02PM 30.7658 -112.3292 122° Southeast  Level FlightAware Approximate
11:03PM 30.6931 -112.1966 123° Southeast  Level FlightAware Approximate
11:04PM 30.6202 -112.0642 123° Southeast  Level FlightAware Approximate
11:05PM 30.5472 -111.9320 123° Southeast  Level FlightAware Approximate
11:06PM 30.4742 -111.8000 123° Southeast  Level FlightAware Approximate
11:07PM 30.4013 -111.6680 123° Southeast  Level FlightAware Approximate
11:08PM 30.3282 -111.5361 123° Southeast  Level FlightAware Approximate
11:09PM 30.2551 -111.4045 123° Southeast  Level FlightAware Approximate
11:10PM 30.1818 -111.2730 123° Southeast  Level FlightAware Approximate
11:11PM 30.1084 -111.1418 123° Southeast  Level FlightAware Approximate
11:12PM 30.0348 -111.0107 123° Southeast  Level FlightAware Approximate
11:13PM 29.9611 -110.8799 123° Southeast  Level FlightAware Approximate
11:14PM 29.8873 -110.7492 123° Southeast  Level FlightAware Approximate
11:15PM 29.8134 -110.6187 123° Southeast  Level FlightAware Approximate
11:16PM 29.7395 -110.4883 123° Southeast  Level FlightAware Approximate
11:17PM 29.6655 -110.3580 123° Southeast  Level FlightAware Approximate
11:18PM 29.5914 -110.2280 123° Southeast  Level FlightAware Approximate
11:19PM 29.5171 -110.0982 123° Southeast  Level FlightAware Approximate
11:20PM 29.4427 -109.9686 123° Southeast  Level FlightAware Approximate
11:21PM 29.3681 -109.8391 123° Southeast  Level FlightAware Approximate
11:22PM 29.2935 -109.7098 123° Southeast  Level FlightAware Approximate
11:23PM 29.2187 -109.5808 124° Southeast  Level FlightAware Approximate
11:24PM 29.1438 -109.4519 124° Southeast  Level FlightAware Approximate
11:25PM 29.0688 -109.3232 124° Southeast  Level FlightAware Approximate
11:26PM 28.9936 -109.1947 124° Southeast  Level FlightAware Approximate
11:27PM 28.9183 -109.0664 124° Southeast  Level FlightAware Approximate
11:28PM 28.8429 -108.9382 124° Southeast  Level FlightAware Approximate
11:29PM 28.7674 -108.8103 124° Southeast  Level FlightAware Approximate
11:30PM 28.6918 -108.6825 124° Southeast  Level FlightAware Approximate
11:31PM 28.6160 -108.5549 124° Southeast  Level FlightAware Approximate
11:32PM 28.5408 -108.4270 124° Southeast  Level FlightAware Approximate
11:33PM 28.4660 -108.2989 124° Southeast  Level FlightAware Approximate
11:34PM 28.3911 -108.1710 124° Southeast  Level FlightAware Approximate
11:35PM 28.3160 -108.0432 124° Southeast  Level FlightAware Approximate
11:36PM 28.2409 -107.9156 124° Southeast  Level FlightAware Approximate
11:37PM 28.1656 -107.7882 124° Southeast  Level FlightAware Approximate
11:38PM 28.0902 -107.6610 124° Southeast  Level FlightAware Approximate
11:39PM 28.0146 -107.5340 124° Southeast  Level FlightAware Approximate
11:40PM 27.9390 -107.4071 124° Southeast  Level FlightAware Approximate
11:41PM 27.8632 -107.2804 124° Southeast  Level FlightAware Approximate
11:42PM 27.7874 -107.1539 124° Southeast  Level FlightAware Approximate
11:43PM 27.7114 -107.0276 124° Southeast  Level FlightAware Approximate
11:44PM 27.6353 -106.9014 124° Southeast  Level FlightAware Approximate
11:45PM 27.5591 -106.7755 124° Southeast  Level FlightAware Approximate
11:46PM 27.4827 -106.6497 124° Southeast  Level FlightAware Approximate
11:47PM 27.4063 -106.5240 124° Southeast  Level FlightAware Approximate
11:48PM 27.3297 -106.3986 124° Southeast  Level FlightAware Approximate
11:49PM 27.2531 -106.2733 125° Southeast  Level FlightAware Approximate
11:50PM 27.1763 -106.1482 125° Southeast  Level FlightAware Approximate
11:51PM 27.0994 -106.0232 125° Southeast  Level FlightAware Approximate
11:52PM 27.0224 -105.8985 125° Southeast  Level FlightAware Approximate
11:53PM 26.9453 -105.7739 125° Southeast  Level FlightAware Approximate
11:54PM 26.8681 -105.6495 125° Southeast  Level FlightAware Approximate
11:55PM 26.7907 -105.5252 125° Southeast  Level FlightAware Approximate
11:56PM 26.7133 -105.4011 125° Southeast  Level FlightAware Approximate
11:57PM 26.6357 -105.2772 125° Southeast  Level FlightAware Approximate
11:58PM 26.5581 -105.1535 125° Southeast  Level FlightAware Approximate
11:59PM 26.4803 -105.0299 125° Southeast  Level FlightAware Approximate
12:00AM 26.4025 -104.9065 125° Southeast  Level FlightAware Approximate
12:01AM 26.3245 -104.7832 125° Southeast  Level FlightAware Approximate
12:02AM 26.2464 -104.6601 125° Southeast  Level FlightAware Approximate
12:03AM 26.1683 -104.5372 125° Southeast  Level FlightAware Approximate
12:04AM 26.0900 -104.4145 125° Southeast  Level FlightAware Approximate
12:05AM 26.0116 -104.2919 125° Southeast  Level FlightAware Approximate
12:06AM 25.9331 -104.1695 125° Southeast  Level FlightAware Approximate
12:07AM 25.8545 -104.0472 126° Southeast  Level FlightAware Approximate
12:08AM 25.7758 -103.9251 126° Southeast  Level FlightAware Approximate
12:09AM 25.6970 -103.8032 126° Southeast  Level FlightAware Approximate
12:10AM 25.6181 -103.6814 126° Southeast  Level FlightAware Approximate
12:11AM 25.5391 -103.5598 126° Southeast  Level FlightAware Approximate
12:12AM 25.4600 -103.4384 126° Southeast  Level FlightAware Approximate
12:13AM 25.3808 -103.3171 126° Southeast  Level FlightAware Approximate
12:14AM 25.3015 -103.1959 126° Southeast  Level FlightAware Approximate
12:15AM 25.2221 -103.0750 126° Southeast  Level FlightAware Approximate
12:16AM 25.1435 -102.9535 126° Southeast  Level FlightAware Approximate
12:17AM 25.0649 -102.8320 126° Southeast  Level FlightAware Approximate
12:18AM 24.9861 -102.7108 126° Southeast  Level FlightAware Approximate
12:19AM 24.9073 -102.5897 126° Southeast  Level FlightAware Approximate
12:20AM 24.8283 -102.4687 126° Southeast  Level FlightAware Approximate
12:21AM 24.7493 -102.3479 126° Southeast  Level FlightAware Approximate
12:22AM 24.6702 -102.2273 126° Southeast  Level FlightAware Approximate
12:23AM 24.5909 -102.1068 126° Southeast  Level FlightAware Approximate
12:24AM 24.5116 -101.9865 126° Southeast  Level FlightAware Approximate
12:25AM 24.4322 -101.8663 126° Southeast  Level FlightAware Approximate
12:26AM 24.3526 -101.7463 126° Southeast  Level FlightAware Approximate
12:27AM 24.2730 -101.6264 126° Southeast  Level FlightAware Approximate
12:28AM 24.1933 -101.5067 126° Southeast  Level FlightAware Approximate
12:29AM 24.1061 -101.3937 132° Southeast  Level FlightAware Approximate
12:30AM 24.0151 -101.2843 132° Southeast  Level FlightAware Approximate
12:31AM 23.9239 -101.1750 132° Southeast  Level FlightAware Approximate
12:32AM 23.8328 -101.0659 132° Southeast  Level FlightAware Approximate
12:33AM 23.7415 -100.9569 132° Southeast  Level FlightAware Approximate
12:34AM 23.6501 -100.8481 132° Southeast  Level FlightAware Approximate
12:35AM 23.5587 -100.7394 133° Southeast  Level FlightAware Approximate
12:36AM 23.4659 -100.6323 131° Southeast  Level FlightAware Approximate
12:37AM 23.3778 -100.5206 131° Southeast  Level FlightAware Approximate
12:38AM 23.2897 -100.4090 131° Southeast  Level FlightAware Approximate
12:39AM 23.2011 -100.2978 132° Southeast  Level FlightAware Approximate
12:40AM 23.1108 -100.1884 132° Southeast  Level FlightAware Approximate
12:41AM 23.0204 -100.0792 132° Southeast  Level FlightAware Approximate
12:42AM 22.9299 -99.9701 132° Southeast  Level FlightAware Approximate
12:43AM 22.8393 -99.8612 132° Southeast  Level FlightAware Approximate
12:44AM 22.7487 -99.7524 132° Southeast  Level FlightAware Approximate
12:45AM 22.6580 -99.6437 132° Southeast  Level FlightAware Approximate
12:46AM 22.5672 -99.5352 132° Southeast  Level FlightAware Approximate
12:47AM 22.4764 -99.4269 132° Southeast  Level FlightAware Approximate
12:48AM 22.3855 -99.3186 132° Southeast  Level FlightAware Approximate
12:49AM 22.2945 -99.2106 132° Southeast  Level FlightAware Approximate
12:50AM 22.2034 -99.1026 132° Southeast  Level FlightAware Approximate
12:51AM 22.1123 -98.9948 132° Southeast  Level FlightAware Approximate
12:52AM 22.0214 -98.8869 132° Southeast  Level FlightAware Approximate
12:53AM 21.9304 -98.7791 132° Southeast  Level FlightAware Approximate
12:54AM 21.8393 -98.6714 132° Southeast  Level FlightAware Approximate
12:55AM 21.7482 -98.5639 132° Southeast  Level FlightAware Approximate
12:56AM 21.6570 -98.4565 132° Southeast  Level FlightAware Approximate
12:57AM 21.5657 -98.3492 132° Southeast  Level FlightAware Approximate
12:58AM 21.4744 -98.2421 132° Southeast  Level FlightAware Approximate
12:59AM 21.3830 -98.1351 133° Southeast  Level FlightAware Approximate
01:00AM 21.2915 -98.0283 133° Southeast  Level FlightAware Approximate
01:01AM 21.2000 -97.9216 133° Southeast  Level FlightAware Approximate
01:02AM 21.1084 -97.8150 133° Southeast  Level FlightAware Approximate
01:03AM 21.0167 -97.7085 133° Southeast  Level FlightAware Approximate
01:04AM 20.9249 -97.6022 133° Southeast  Level FlightAware Approximate
01:05AM 20.8331 -97.4960 133° Southeast  Level FlightAware Approximate
01:06AM 20.7412 -97.3899 133° Southeast  Level FlightAware Approximate
01:07AM 20.6493 -97.2840 133° Southeast  Level FlightAware Approximate
01:08AM 20.5573 -97.1782 133° Southeast  Level FlightAware Approximate
01:09AM 20.4652 -97.0725 133° Southeast  Level FlightAware Approximate
01:10AM 20.3731 -96.9670 133° Southeast  Level FlightAware Approximate
01:11AM 20.2811 -96.8613 132° Southeast  Level FlightAware Approximate
01:12AM 20.1908 -96.7542 128° Southeast  Level FlightAware Approximate
01:13AM 20.1075 -96.6408 128° Southeast  Level FlightAware Approximate
01:14AM 20.0240 -96.5276 128° Southeast  Level FlightAware Approximate
01:15AM 19.9405 -96.4145 128° Southeast  Level FlightAware Approximate
01:16AM 19.8569 -96.3015 128° Southeast  Level FlightAware Approximate
01:17AM 19.7732 -96.1887 128° Southeast  Level FlightAware Approximate
01:18AM 19.6895 -96.0759 128° Southeast  Level FlightAware Approximate
01:19AM 19.6057 -95.9633 128° Southeast  Level FlightAware Approximate
01:20AM 19.5218 -95.8508 128° Southeast  Level FlightAware Approximate
01:21AM 19.4379 -95.7384 128° Southeast  Level FlightAware Approximate
01:22AM 19.3539 -95.6261 128° Southeast  Level FlightAware Approximate
01:23AM 19.2698 -95.5140 128° Southeast  Level FlightAware Approximate
01:24AM 19.1857 -95.4019 128° Southeast  Level FlightAware Approximate
01:25AM 19.1014 -95.2900 129° Southeast  Level FlightAware Approximate
01:26AM 19.0172 -95.1782 129° Southeast  Level FlightAware Approximate
01:27AM 18.9326 -95.0666 129° Southeast  Level FlightAware Approximate
01:28AM 18.8480 -94.9552 129° Southeast  Level FlightAware Approximate
01:29AM 18.7632 -94.8440 129° Southeast  Level FlightAware Approximate
01:30AM 18.6784 -94.7328 129° Southeast  Level FlightAware Approximate
01:31AM 18.5935 -94.6218 129° Southeast  Level FlightAware Approximate
01:32AM 18.5086 -94.5109 129° Southeast  Level FlightAware Approximate
01:33AM 18.4235 -94.4001 129° Southeast  Level FlightAware Approximate
01:34AM 18.3385 -94.2894 129° Southeast  Level FlightAware Approximate
01:35AM 18.2533 -94.1788 129° Southeast  Level FlightAware Approximate
01:36AM 18.1681 -94.0683 129° Southeast  Level FlightAware Approximate
01:37AM 18.0828 -93.9580 129° Southeast  Level FlightAware Approximate
01:38AM 17.9975 -93.8477 129° Southeast  Level FlightAware Approximate
01:39AM 17.9121 -93.7375 129° Southeast  Level FlightAware Approximate
01:40AM 17.8267 -93.6275 129° Southeast  Level FlightAware Approximate
01:41AM 17.7411 -93.5175 129° Southeast  Level FlightAware Approximate
01:42AM 17.6556 -93.4077 129° Southeast  Level FlightAware Approximate
01:43AM 17.5699 -93.2980 129° Southeast  Level FlightAware Approximate
01:44AM 17.4842 -93.1883 129° Southeast  Level FlightAware Approximate
01:45AM 17.3985 -93.0788 129° Southeast  Level FlightAware Approximate
01:46AM 17.3127 -92.9694 129° Southeast  Level FlightAware Approximate
01:47AM 17.2268 -92.8601 129° Southeast  Level FlightAware Approximate
01:48AM 17.1408 -92.7508 129° Southeast  Level FlightAware Approximate
01:49AM 17.0548 -92.6417 129° Southeast  Level FlightAware Approximate
01:50AM 16.9688 -92.5327 130° Southeast  Level FlightAware Approximate
01:51AM 16.8827 -92.4238 130° Southeast  Level FlightAware Approximate
01:52AM 16.7965 -92.3150 130° Southeast  Level FlightAware Approximate
01:53AM 16.7103 -92.2062 130° Southeast  Level FlightAware Approximate
01:54AM 16.6240 -92.0976 130° Southeast  Level FlightAware Approximate
01:55AM 16.5376 -91.9891 130° Southeast  Level FlightAware Approximate
01:56AM 16.4513 -91.8807 130° Southeast  Level FlightAware Approximate
01:57AM 16.3648 -91.7723 130° Southeast  Level FlightAware Approximate
01:58AM 16.2783 -91.6641 130° Southeast  Level FlightAware Approximate
01:59AM 16.1917 -91.5559 130° Southeast  Level FlightAware Approximate
02:00AM 16.1051 -91.4479 130° Southeast  Level FlightAware Approximate
02:01AM 16.0187 -91.3398 130° Southeast  Level FlightAware Approximate
02:02AM 15.9324 -91.2316 130° Southeast  Level FlightAware Approximate
02:03AM 15.8460 -91.1234 130° Southeast  Level FlightAware Approximate
02:04AM 15.7596 -91.0154 130° Southeast  Level FlightAware Approximate
02:05AM 15.6731 -90.9075 130° Southeast  Level FlightAware Approximate
02:06AM 15.5866 -90.7996 130° Southeast  Level FlightAware Approximate
02:07AM 15.5000 -90.6919 130° Southeast  Level FlightAware Approximate
02:08AM 15.4134 -90.5842 130° Southeast  Level FlightAware Approximate
02:09AM 15.3267 -90.4766 130° Southeast  Level FlightAware Approximate
02:10AM 15.2399 -90.3692 130° Southeast  Level FlightAware Approximate
02:11AM 15.1531 -90.2618 130° Southeast  Level FlightAware Approximate
02:12AM 15.0663 -90.1545 130° Southeast  Level FlightAware Approximate
02:13AM 14.9794 -90.0472 130° Southeast  Level FlightAware Approximate
02:14AM 14.8925 -89.9401 130° Southeast  Level FlightAware Approximate
02:15AM 14.8055 -89.8331 130° Southeast  Level FlightAware Approximate
02:16AM 14.7184 -89.7261 130° Southeast  Level FlightAware Approximate
02:17AM 14.6313 -89.6192 130° Southeast  Level FlightAware Approximate
02:18AM 14.5442 -89.5124 130° Southeast  Level FlightAware Approximate
02:19AM 14.4570 -89.4057 130° Southeast  Level FlightAware Approximate
02:20AM 14.3698 -89.2991 130° Southeast  Level FlightAware Approximate
02:21AM 14.2825 -89.1926 130° Southeast  Level FlightAware Approximate
02:22AM 14.1952 -89.0861 130° Southeast  Level FlightAware Approximate
02:23AM 14.1078 -88.9797 130° Southeast  Level FlightAware Approximate
02:24AM 14.0204 -88.8735 130° Southeast  Level FlightAware Approximate
02:25AM 13.9329 -88.7672 130° Southeast  Level FlightAware Approximate
02:26AM 13.8454 -88.6611 131° Southeast  Level FlightAware Approximate
02:27AM 13.7576 -88.5553 131° Southeast  Level FlightAware Approximate
02:28AM 13.6697 -88.4496 131° Southeast  Level FlightAware Approximate
02:29AM 13.5818 -88.3439 131° Southeast  Level FlightAware Approximate
02:30AM 13.4938 -88.2384 131° Southeast  Level FlightAware Approximate
02:31AM 13.4058 -88.1329 131° Southeast  Level FlightAware Approximate
02:32AM 13.3177 -88.0274 131° Southeast  Level FlightAware Approximate
02:33AM 13.2296 -87.9221 131° Southeast  Level FlightAware Approximate
02:34AM 13.1415 -87.8168 131° Southeast  Level FlightAware Approximate
02:35AM 13.0533 -87.7116 131° Southeast  Level FlightAware Approximate
02:36AM 12.9651 -87.6065 131° Southeast  Level FlightAware Approximate
02:37AM 12.8768 -87.5015 131° Southeast  Level FlightAware Approximate
02:38AM 12.7885 -87.3965 131° Southeast  Level FlightAware Approximate
02:39AM 12.7001 -87.2916 131° Southeast  Level FlightAware Approximate
02:40AM 12.6118 -87.1868 131° Southeast  Level FlightAware Approximate
02:41AM 12.5233 -87.0820 131° Southeast  Level FlightAware Approximate
02:42AM 12.4348 -86.9774 131° Southeast  Level FlightAware Approximate
02:43AM 12.3463 -86.8728 131° Southeast  Level FlightAware Approximate
02:44AM 12.2578 -86.7682 131° Southeast  Level FlightAware Approximate
02:45AM 12.1692 -86.6638 131° Southeast  Level FlightAware Approximate
02:46AM 12.0806 -86.5594 131° Southeast  Level FlightAware Approximate
02:47AM 11.9919 -86.4551 131° Southeast  Level FlightAware Approximate
02:48AM 11.9032 -86.3508 131° Southeast  Level FlightAware Approximate
02:49AM 11.8145 -86.2465 131° Southeast  Level FlightAware Approximate
02:50AM 11.7259 -86.1423 131° Southeast  Level FlightAware Approximate
02:51AM 11.6371 -86.0381 131° Southeast  Level FlightAware Approximate
02:52AM 11.5484 -85.9340 131° Southeast  Level FlightAware Approximate
02:53AM 11.4596 -85.8300 131° Southeast  Level FlightAware Approximate
02:54AM 11.3708 -85.7260 131° Southeast  Level FlightAware Approximate
02:55AM 11.2819 -85.6221 131° Southeast  Level FlightAware Approximate
02:56AM 11.1930 -85.5183 131° Southeast  Level FlightAware Approximate
02:57AM 11.1041 -85.4146 131° Southeast  Level FlightAware Approximate
02:58AM 11.0151 -85.3109 131° Southeast  Level FlightAware Approximate
02:59AM 10.9261 -85.2072 131° Southeast  Level FlightAware Approximate
03:00AM 10.8371 -85.1036 131° Southeast  Level FlightAware Approximate
03:01AM 10.7480 -85.0001 131° Southeast  Level FlightAware Approximate
03:02AM 10.6589 -84.8967 131° Southeast  Level FlightAware Approximate
03:03AM 10.5698 -84.7933 131° Southeast  Level FlightAware Approximate
03:04AM 10.4806 -84.6899 131° Southeast  Level FlightAware Approximate
03:05AM 10.3914 -84.5867 131° Southeast  Level FlightAware Approximate
03:06AM 10.3022 -84.4835 131° Southeast  Level FlightAware Approximate
03:07AM 10.2129 -84.3803 131° Southeast  Level FlightAware Approximate
03:08AM 10.1236 -84.2772 131° Southeast  Level FlightAware Approximate
03:09AM 10.0343 -84.1741 131° Southeast  Level FlightAware Approximate
03:10AM 9.9449 -84.0712 131° Southeast  Level FlightAware Approximate
03:11AM 9.8555 -83.9682 131° Southeast  Level FlightAware Approximate
03:12AM 9.7661 -83.8654 131° Southeast  Level FlightAware Approximate
03:13AM 9.6766 -83.7625 131° Southeast  Level FlightAware Approximate
03:14AM 9.5871 -83.6598 131° Southeast  Level FlightAware Approximate
03:15AM 9.4976 -83.5571 131° Southeast  Level FlightAware Approximate
03:16AM 9.4080 -83.4544 131° Southeast  Level FlightAware Approximate
03:17AM 9.3184 -83.3518 131° Southeast  Level FlightAware Approximate
03:18AM 9.2288 -83.2493 132° Southeast  Level FlightAware Approximate
03:19AM 9.1392 -83.1468 132° Southeast  Level FlightAware Approximate
03:20AM 9.0495 -83.0443 132° Southeast  Level FlightAware Approximate
03:21AM 8.9598 -82.9419 132° Southeast  Level FlightAware Approximate
03:22AM 8.8701 -82.8396 132° Southeast  Level FlightAware Approximate
03:23AM 8.7806 -82.7371 131° Southeast  Level FlightAware Approximate
03:24AM 8.6910 -82.6347 131° Southeast  Level FlightAware Approximate
03:25AM 8.6015 -82.5322 131° Southeast  Level FlightAware Approximate
03:26AM 8.5119 -82.4298 131° Southeast  Level FlightAware Approximate
03:27AM 8.4223 -82.3275 132° Southeast  Level FlightAware Approximate
03:28AM 8.3327 -82.2252 132° Southeast  Level FlightAware Approximate
03:29AM 8.2429 -82.1231 132° Southeast  Level FlightAware Approximate
03:30AM 8.1528 -82.0213 132° Southeast  Level FlightAware Approximate
03:31AM 8.0626 -81.9195 132° Southeast  Level FlightAware Approximate
03:32AM 7.9725 -81.8178 132° Southeast  Level FlightAware Approximate
03:33AM 7.8823 -81.7161 132° Southeast  Level FlightAware Approximate
03:34AM 7.7921 -81.6145 132° Southeast  Level FlightAware Approximate
03:35AM 7.7019 -81.5129 132° Southeast  Level FlightAware Approximate
03:36AM 7.6116 -81.4114 132° Southeast  Level FlightAware Approximate
03:37AM 7.5214 -81.3099 132° Southeast  Level FlightAware Approximate
03:38AM 7.4311 -81.2084 132° Southeast  Level FlightAware Approximate
03:39AM 7.3408 -81.1070 132° Southeast  Level FlightAware Approximate
03:40AM 7.2504 -81.0056 132° Southeast  Level FlightAware Approximate
03:41AM 7.1600 -80.9043 132° Southeast  Level FlightAware Approximate
03:42AM 7.0697 -80.8030 132° Southeast  Level FlightAware Approximate
03:43AM 6.9792 -80.7017 132° Southeast  Level FlightAware Approximate
03:44AM 6.8888 -80.6005 132° Southeast  Level FlightAware Approximate
03:45AM 6.7984 -80.4993 132° Southeast  Level FlightAware Approximate
03:46AM 6.7079 -80.3982 132° Southeast  Level FlightAware Approximate
03:47AM 6.6174 -80.2971 132° Southeast  Level FlightAware Approximate
03:48AM 6.5269 -80.1960 132° Southeast  Level FlightAware Approximate
03:49AM 6.4364 -80.0950 132° Southeast  Level FlightAware Approximate
03:50AM 6.3458 -79.9940 132° Southeast  Level FlightAware Approximate
03:51AM 6.2552 -79.8930 132° Southeast  Level FlightAware Approximate
03:52AM 6.1647 -79.7921 132° Southeast  Level FlightAware Approximate
03:53AM 6.0740 -79.6912 132° Southeast  Level FlightAware Approximate
03:54AM 5.9834 -79.5903 132° Southeast  Level FlightAware Approximate
03:55AM 5.8928 -79.4895 132° Southeast  Level FlightAware Approximate
03:56AM 5.8021 -79.3887 132° Southeast  Level FlightAware Approximate
03:57AM 5.7114 -79.2880 132° Southeast  Level FlightAware Approximate
03:58AM 5.6207 -79.1873 132° Southeast  Level FlightAware Approximate
03:59AM 5.5300 -79.0866 132° Southeast  Level FlightAware Approximate
04:00AM 5.4392 -78.9859 132° Southeast  Level FlightAware Approximate
04:01AM 5.3485 -78.8853 132° Southeast  Level FlightAware Approximate
04:02AM 5.2577 -78.7847 132° Southeast  Level FlightAware Approximate
04:03AM 5.1669 -78.6841 132° Southeast  Level FlightAware Approximate
04:04AM 5.0761 -78.5836 132° Southeast  Level FlightAware Approximate
04:05AM 4.9853 -78.4831 132° Southeast  Level FlightAware Approximate
04:06AM 4.8945 -78.3826 132° Southeast  Level FlightAware Approximate
04:07AM 4.8036 -78.2821 132° Southeast  Level FlightAware Approximate
04:08AM 4.7127 -78.1817 132° Southeast  Level FlightAware Approximate
04:09AM 4.6219 -78.0813 132° Southeast  Level FlightAware Approximate
04:10AM 4.5310 -77.9809 132° Southeast  Level FlightAware Approximate
04:11AM 4.4401 -77.8806 132° Southeast  Level FlightAware Approximate
04:12AM 4.3491 -77.7802 132° Southeast  Level FlightAware Approximate
04:13AM 4.2582 -77.6799 132° Southeast  Level FlightAware Approximate
04:14AM 4.1673 -77.5797 132° Southeast  Level FlightAware Approximate
04:15AM 4.0763 -77.4794 132° Southeast  Level FlightAware Approximate
04:16AM 3.9853 -77.3792 132° Southeast  Level FlightAware Approximate
04:17AM 3.8943 -77.2790 132° Southeast  Level FlightAware Approximate
04:18AM 3.8033 -77.1788 132° Southeast  Level FlightAware Approximate
04:19AM 3.7123 -77.0786 132° Southeast  Level FlightAware Approximate
04:20AM 3.6213 -76.9784 132° Southeast  Level FlightAware Approximate
04:21AM 3.5304 -76.8782 132° Southeast  Level FlightAware Approximate
04:22AM 3.4397 -76.7778 132° Southeast  Level FlightAware Approximate
04:23AM 3.3490 -76.6774 132° Southeast  Level FlightAware Approximate
04:24AM 3.2583 -76.5769 132° Southeast  Level FlightAware Approximate
04:25AM 3.1676 -76.4765 132° Southeast  Level FlightAware Approximate
04:26AM 3.0769 -76.3762 132° Southeast  Level FlightAware Approximate
04:27AM 2.9862 -76.2758 132° Southeast  Level FlightAware Approximate
04:28AM 2.8955 -76.1755 132° Southeast  Level FlightAware Approximate
04:29AM 2.8047 -76.0751 132° Southeast  Level FlightAware Approximate
04:30AM 2.7140 -75.9748 132° Southeast  Level FlightAware Approximate
04:31AM 2.6232 -75.8745 132° Southeast  Level FlightAware Approximate
04:32AM 2.5325 -75.7742 132° Southeast  Level FlightAware Approximate
04:33AM 2.4417 -75.6740 132° Southeast  Level FlightAware Approximate
04:34AM 2.3509 -75.5737 132° Southeast  Level FlightAware Approximate
04:35AM 2.2602 -75.4735 132° Southeast  Level FlightAware Approximate
04:36AM 2.1694 -75.3733 132° Southeast  Level FlightAware Approximate
04:37AM 2.0786 -75.2730 132° Southeast  Level FlightAware Approximate
04:38AM 1.9878 -75.1728 132° Southeast  Level FlightAware Approximate
04:39AM 1.8970 -75.0726 132° Southeast  Level FlightAware Approximate
04:40AM 1.8061 -74.9725 132° Southeast  Level FlightAware Approximate
04:41AM 1.7153 -74.8723 132° Southeast  Level FlightAware Approximate
04:42AM 1.6245 -74.7721 132° Southeast  Level FlightAware Approximate
04:43AM 1.5337 -74.6720 132° Southeast  Level FlightAware Approximate
04:44AM 1.4428 -74.5718 132° Southeast  Level FlightAware Approximate
04:45AM 1.3520 -74.4717 132° Southeast  Level FlightAware Approximate
04:46AM 1.2612 -74.3716 132° Southeast  Level FlightAware Approximate
04:47AM 1.1703 -74.2714 132° Southeast  Level FlightAware Approximate
04:48AM 1.0795 -74.1713 132° Southeast  Level FlightAware Approximate
04:49AM 0.9886 -74.0712 132° Southeast  Level FlightAware Approximate
04:50AM 0.8978 -73.9711 132° Southeast  Level FlightAware Approximate
04:51AM 0.8069 -73.8710 132° Southeast  Level FlightAware Approximate
04:52AM 0.7160 -73.7709 132° Southeast  Level FlightAware Approximate
04:53AM 0.6252 -73.6708 132° Southeast  Level FlightAware Approximate
04:54AM 0.5343 -73.5707 132° Southeast  Level FlightAware Approximate
04:55AM 0.4434 -73.4706 132° Southeast  Level FlightAware Approximate
04:56AM 0.3526 -73.3706 132° Southeast  Level FlightAware Approximate
04:57AM 0.2617 -73.2705 132° Southeast  Level FlightAware Approximate
04:58AM 0.1708 -73.1704 132° Southeast  Level FlightAware Approximate
04:59AM 0.0800 -73.0703 132° Southeast  Level FlightAware Approximate
05:00AM -0.0109 -72.9702 132° Southeast  Level FlightAware Approximate
05:01AM -0.1018 -72.8702 132° Southeast  Level FlightAware Approximate
05:02AM -0.1927 -72.7701 132° Southeast  Level FlightAware Approximate
05:03AM -0.2835 -72.6700 132° Southeast  Level FlightAware Approximate
05:04AM -0.3744 -72.5699 132° Southeast  Level FlightAware Approximate
05:05AM -0.4653 -72.4698 132° Southeast  Level FlightAware Approximate
05:06AM -0.5561 -72.3698 132° Southeast  Level FlightAware Approximate
05:07AM -0.6470 -72.2697 132° Southeast  Level FlightAware Approximate
05:08AM -0.7379 -72.1696 132° Southeast  Level FlightAware Approximate
05:09AM -0.8287 -72.0695 132° Southeast  Level FlightAware Approximate
05:10AM -0.9196 -71.9694 132° Southeast  Level FlightAware Approximate
05:11AM -1.0104 -71.8693 132° Southeast  Level FlightAware Approximate
05:12AM -1.1013 -71.7691 132° Southeast  Level FlightAware Approximate
05:13AM -1.1921 -71.6690 132° Southeast  Level FlightAware Approximate
05:14AM -1.2830 -71.5689 132° Southeast  Level FlightAware Approximate
05:15AM -1.3738 -71.4688 132° Southeast  Level FlightAware Approximate
05:16AM -1.4647 -71.3686 132° Southeast  Level FlightAware Approximate
05:17AM -1.5555 -71.2685 132° Southeast  Level FlightAware Approximate
05:18AM -1.6463 -71.1683 132° Southeast  Level FlightAware Approximate
05:19AM -1.7371 -71.0682 132° Southeast  Level FlightAware Approximate
05:20AM -1.8280 -70.9680 132° Southeast  Level FlightAware Approximate
05:21AM -1.9188 -70.8678 132° Southeast  Level FlightAware Approximate
05:22AM -2.0119 -70.7698 134° Southeast  Level FlightAware Approximate
05:23AM -2.1062 -70.6728 134° Southeast  Level FlightAware Approximate
05:24AM -2.2005 -70.5759 134° Southeast  Level FlightAware Approximate
05:25AM -2.2948 -70.4790 134° Southeast  Level FlightAware Approximate
05:26AM -2.3891 -70.3820 134° Southeast  Level FlightAware Approximate
05:27AM -2.4833 -70.2851 134° Southeast  Level FlightAware Approximate
05:28AM -2.5776 -70.1881 134° Southeast  Level FlightAware Approximate
05:29AM -2.6719 -70.0911 134° Southeast  Level FlightAware Approximate
05:30AM -2.7661 -69.9941 134° Southeast  Level FlightAware Approximate
05:31AM -2.8604 -69.8971 134° Southeast  Level FlightAware Approximate
05:32AM -2.9546 -69.8000 134° Southeast  Level FlightAware Approximate
05:33AM -3.0489 -69.7030 134° Southeast  Level FlightAware Approximate
05:34AM -3.1431 -69.6059 134° Southeast  Level FlightAware Approximate
05:35AM -3.2373 -69.5088 134° Southeast  Level FlightAware Approximate
05:36AM -3.3315 -69.4117 134° Southeast  Level FlightAware Approximate
05:37AM -3.4257 -69.3146 134° Southeast  Level FlightAware Approximate
05:38AM -3.5199 -69.2175 134° Southeast  Level FlightAware Approximate
05:39AM -3.6141 -69.1203 134° Southeast  Level FlightAware Approximate
05:40AM -3.7082 -69.0231 134° Southeast  Level FlightAware Approximate
05:41AM -3.8024 -68.9259 134° Southeast  Level FlightAware Approximate
05:42AM -3.8965 -68.8287 134° Southeast  Level FlightAware Approximate
05:43AM -3.9906 -68.7314 134° Southeast  Level FlightAware Approximate
05:44AM -4.0848 -68.6342 134° Southeast  Level FlightAware Approximate
05:45AM -4.1789 -68.5369 134° Southeast  Level FlightAware Approximate
05:46AM -4.2730 -68.4396 134° Southeast  Level FlightAware Approximate
05:47AM -4.3671 -68.3422 134° Southeast  Level FlightAware Approximate
05:48AM -4.4611 -68.2449 134° Southeast  Level FlightAware Approximate
05:49AM -4.5552 -68.1475 134° Southeast  Level FlightAware Approximate
05:50AM -4.6493 -68.0500 134° Southeast  Level FlightAware Approximate
05:51AM -4.7433 -67.9526 134° Southeast  Level FlightAware Approximate
05:52AM -4.8373 -67.8551 134° Southeast  Level FlightAware Approximate
05:53AM -4.9313 -67.7577 134° Southeast  Level FlightAware Approximate
05:54AM -5.0253 -67.6601 134° Southeast  Level FlightAware Approximate
05:55AM -5.1193 -67.5626 134° Southeast  Level FlightAware Approximate
05:56AM -5.2132 -67.4650 134° Southeast  Level FlightAware Approximate
05:57AM -5.3072 -67.3674 134° Southeast  Level FlightAware Approximate
05:58AM -5.4011 -67.2698 134° Southeast  Level FlightAware Approximate
05:59AM -5.4950 -67.1721 134° Southeast  Level FlightAware Approximate
06:00AM -5.5889 -67.0744 134° Southeast  Level FlightAware Approximate
06:01AM -5.6828 -66.9766 134° Southeast  Level FlightAware Approximate
06:02AM -5.7767 -66.8789 134° Southeast  Level FlightAware Approximate
06:03AM -5.8705 -66.7811 134° Southeast  Level FlightAware Approximate
06:04AM -5.9644 -66.6833 134° Southeast  Level FlightAware Approximate
06:05AM -6.0582 -66.5854 134° Southeast  Level FlightAware Approximate
06:06AM -6.1520 -66.4875 134° Southeast  Level FlightAware Approximate
06:07AM -6.2458 -66.3896 134° Southeast  Level FlightAware Approximate
06:08AM -6.3395 -66.2916 134° Southeast  Level FlightAware Approximate
06:09AM -6.4333 -66.1936 134° Southeast  Level FlightAware Approximate
06:10AM -6.5270 -66.0956 134° Southeast  Level FlightAware Approximate
06:11AM -6.6207 -65.9975 134° Southeast  Level FlightAware Approximate
06:12AM -6.7144 -65.8994 134° Southeast  Level FlightAware Approximate
06:13AM -6.8081 -65.8012 134° Southeast  Level FlightAware Approximate
06:14AM -6.9017 -65.7031 134° Southeast  Level FlightAware Approximate
06:15AM -6.9954 -65.6048 134° Southeast  Level FlightAware Approximate
06:16AM -7.0890 -65.5066 134° Southeast  Level FlightAware Approximate
06:17AM -7.1826 -65.4083 134° Southeast  Level FlightAware Approximate
06:18AM -7.2761 -65.3099 134° Southeast  Level FlightAware Approximate
06:19AM -7.3697 -65.2115 134° Southeast  Level FlightAware Approximate
06:20AM -7.4632 -65.1131 134° Southeast  Level FlightAware Approximate
06:21AM -7.5567 -65.0146 134° Southeast  Level FlightAware Approximate
06:22AM -7.6502 -64.9161 134° Southeast  Level FlightAware Approximate
06:23AM -7.7436 -64.8176 134° Southeast  Level FlightAware Approximate
06:24AM -7.8371 -64.7190 134° Southeast  Level FlightAware Approximate
06:25AM -7.9305 -64.6203 134° Southeast  Level FlightAware Approximate
06:26AM -8.0239 -64.5216 134° Southeast  Level FlightAware Approximate
06:27AM -8.1173 -64.4229 134° Southeast  Level FlightAware Approximate
06:28AM -8.2106 -64.3241 134° Southeast  Level FlightAware Approximate
06:29AM -8.3039 -64.2253 134° Southeast  Level FlightAware Approximate
06:30AM -8.3972 -64.1264 134° Southeast  Level FlightAware Approximate
06:31AM -8.4905 -64.0275 134° Southeast  Level FlightAware Approximate
06:32AM -8.5837 -63.9285 134° Southeast  Level FlightAware Approximate
06:33AM -8.6769 -63.8295 134° Southeast  Level FlightAware Approximate
06:34AM -8.7701 -63.7304 134° Southeast  Level FlightAware Approximate
06:35AM -8.8633 -63.6313 134° Southeast  Level FlightAware Approximate
06:36AM -8.9564 -63.5322 134° Southeast  Level FlightAware Approximate
06:37AM -9.0495 -63.4329 134° Southeast  Level FlightAware Approximate
06:38AM -9.1426 -63.3337 134° Southeast  Level FlightAware Approximate
06:39AM -9.2357 -63.2343 134° Southeast  Level FlightAware Approximate
06:40AM -9.3287 -63.1350 133° Southeast  Level FlightAware Approximate
06:41AM -9.4217 -63.0355 133° Southeast  Level FlightAware Approximate
06:42AM -9.5147 -62.9361 133° Southeast  Level FlightAware Approximate
06:43AM -9.6077 -62.8365 133° Southeast  Level FlightAware Approximate
06:44AM -9.7006 -62.7369 133° Southeast  Level FlightAware Approximate
06:45AM -9.7935 -62.6373 133° Southeast  Level FlightAware Approximate
06:46AM -9.8863 -62.5376 133° Southeast  Level FlightAware Approximate
06:47AM -9.9792 -62.4378 133° Southeast  Level FlightAware Approximate
06:48AM -10.0720 -62.3380 133° Southeast  Level FlightAware Approximate
06:49AM -10.1647 -62.2382 133° Southeast  Level FlightAware Approximate
06:50AM -10.2575 -62.1382 133° Southeast  Level FlightAware Approximate
06:51AM -10.3502 -62.0382 133° Southeast  Level FlightAware Approximate
06:52AM -10.4429 -61.9382 133° Southeast  Level FlightAware Approximate
06:53AM -10.5355 -61.8381 133° Southeast  Level FlightAware Approximate
06:54AM -10.6281 -61.7379 133° Southeast  Level FlightAware Approximate
06:55AM -10.7207 -61.6377 133° Southeast  Level FlightAware Approximate
06:56AM -10.8133 -61.5374 133° Southeast  Level FlightAware Approximate
06:57AM -10.9058 -61.4370 133° Southeast  Level FlightAware Approximate
06:58AM -10.9983 -61.3366 133° Southeast  Level FlightAware Approximate
06:59AM -11.0907 -61.2362 133° Southeast  Level FlightAware Approximate
07:00AM -11.1832 -61.1356 133° Southeast  Level FlightAware Approximate
07:01AM -11.2756 -61.0350 133° Southeast  Level FlightAware Approximate
07:02AM -11.3679 -60.9343 133° Southeast  Level FlightAware Approximate
07:03AM -11.4602 -60.8336 133° Southeast  Level FlightAware Approximate
07:04AM -11.5525 -60.7328 133° Southeast  Level FlightAware Approximate
07:05AM -11.6448 -60.6320 133° Southeast  Level FlightAware Approximate
07:06AM -11.7370 -60.5310 133° Southeast  Level FlightAware Approximate
07:07AM -11.8292 -60.4300 133° Southeast  Level FlightAware Approximate
07:08AM -11.9213 -60.3290 133° Southeast  Level FlightAware Approximate
07:09AM -12.0134 -60.2278 133° Southeast  Level FlightAware Approximate
07:10AM -12.1055 -60.1266 133° Southeast  Level FlightAware Approximate
07:11AM -12.1976 -60.0253 133° Southeast  Level FlightAware Approximate
07:12AM -12.2896 -59.9240 133° Southeast  Level FlightAware Approximate
07:13AM -12.3815 -59.8226 133° Southeast  Level FlightAware Approximate
07:14AM -12.4735 -59.7211 133° Southeast  Level FlightAware Approximate
07:15AM -12.5653 -59.6195 133° Southeast  Level FlightAware Approximate
07:16AM -12.6572 -59.5179 133° Southeast  Level FlightAware Approximate
07:17AM -12.7490 -59.4162 133° Southeast  Level FlightAware Approximate
07:18AM -12.8408 -59.3144 133° Southeast  Level FlightAware Approximate
07:19AM -12.9325 -59.2126 133° Southeast  Level FlightAware Approximate
07:20AM -13.0242 -59.1106 133° Southeast  Level FlightAware Approximate
07:21AM -13.1159 -59.0086 133° Southeast  Level FlightAware Approximate
07:22AM -13.2075 -58.9065 133° Southeast  Level FlightAware Approximate
07:23AM -13.2991 -58.8044 133° Southeast  Level FlightAware Approximate
07:24AM -13.3906 -58.7021 133° Southeast  Level FlightAware Approximate
07:25AM -13.4821 -58.5998 133° Southeast  Level FlightAware Approximate
07:26AM -13.5735 -58.4975 133° Southeast  Level FlightAware Approximate
07:27AM -13.6649 -58.3950 133° Southeast  Level FlightAware Approximate
07:28AM -13.7563 -58.2924 133° Southeast  Level FlightAware Approximate
07:29AM -13.8476 -58.1898 133° Southeast  Level FlightAware Approximate
07:30AM -13.9389 -58.0871 132° Southeast  Level FlightAware Approximate
07:31AM -14.0301 -57.9843 132° Southeast  Level FlightAware Approximate
07:32AM -14.1213 -57.8814 132° Southeast  Level FlightAware Approximate
07:33AM -14.2125 -57.7785 132° Southeast  Level FlightAware Approximate
07:34AM -14.3036 -57.6754 132° Southeast  Level FlightAware Approximate
07:35AM -14.3947 -57.5723 132° Southeast  Level FlightAware Approximate
07:36AM -14.4857 -57.4691 132° Southeast  Level FlightAware Approximate
07:37AM -14.5766 -57.3658 132° Southeast  Level FlightAware Approximate
07:38AM -14.6676 -57.2624 132° Southeast  Level FlightAware Approximate
07:39AM -14.7585 -57.1590 132° Southeast  Level FlightAware Approximate
07:40AM -14.8493 -57.0554 132° Southeast  Level FlightAware Approximate
07:41AM -14.9401 -56.9518 132° Southeast  Level FlightAware Approximate
07:42AM -15.0308 -56.8481 132° Southeast  Level FlightAware Approximate
07:43AM -15.1215 -56.7443 132° Southeast  Level FlightAware Approximate
07:44AM -15.2122 -56.6404 132° Southeast  Level FlightAware Approximate
07:45AM -15.3028 -56.5364 132° Southeast  Level FlightAware Approximate
07:46AM -15.3933 -56.4323 132° Southeast  Level FlightAware Approximate
07:47AM -15.4838 -56.3281 132° Southeast  Level FlightAware Approximate
07:48AM -15.5743 -56.2239 132° Southeast  Level FlightAware Approximate
07:49AM -15.6647 -56.1195 132° Southeast  Level FlightAware Approximate
07:50AM -15.7551 -56.0151 132° Southeast  Level FlightAware Approximate
07:51AM -15.8454 -55.9105 132° Southeast  Level FlightAware Approximate
07:52AM -15.9356 -55.8059 132° Southeast  Level FlightAware Approximate
07:53AM -16.0258 -55.7012 132° Southeast  Level FlightAware Approximate
07:54AM -16.1160 -55.5964 132° Southeast  Level FlightAware Approximate
07:55AM -16.2061 -55.4914 132° Southeast  Level FlightAware Approximate
07:56AM -16.2962 -55.3864 132° Southeast  Level FlightAware Approximate
07:57AM -16.3862 -55.2813 132° Southeast  Level FlightAware Approximate
07:58AM -16.4761 -55.1761 132° Southeast  Level FlightAware Approximate
07:59AM -16.5660 -55.0708 132° Southeast  Level FlightAware Approximate
08:00AM -16.6558 -54.9654 132° Southeast  Level FlightAware Approximate
08:01AM -16.7456 -54.8599 132° Southeast  Level FlightAware Approximate
08:02AM -16.8354 -54.7543 132° Southeast  Level FlightAware Approximate
08:03AM -16.9251 -54.6486 132° Southeast  Level FlightAware Approximate
08:04AM -17.0147 -54.5428 132° Southeast  Level FlightAware Approximate
08:05AM -17.1042 -54.4369 132° Southeast  Level FlightAware Approximate
08:06AM -17.1938 -54.3309 131° Southeast  Level FlightAware Approximate
08:07AM -17.2832 -54.2248 131° Southeast  Level FlightAware Approximate
08:08AM -17.3726 -54.1186 131° Southeast  Level FlightAware Approximate
08:09AM -17.4620 -54.0123 131° Southeast  Level FlightAware Approximate
08:10AM -17.5513 -53.9059 131° Southeast  Level FlightAware Approximate
08:11AM -17.6405 -53.7994 131° Southeast  Level FlightAware Approximate
08:12AM -17.7297 -53.6927 131° Southeast  Level FlightAware Approximate
08:13AM -17.8188 -53.5860 131° Southeast  Level FlightAware Approximate
08:14AM -17.9079 -53.4791 131° Southeast  Level FlightAware Approximate
08:15AM -17.9969 -53.3722 131° Southeast  Level FlightAware Approximate
08:16AM -18.0858 -53.2651 131° Southeast  Level FlightAware Approximate
08:17AM -18.1747 -53.1580 131° Southeast  Level FlightAware Approximate
08:18AM -18.2636 -53.0507 131° Southeast  Level FlightAware Approximate
08:19AM -18.3523 -52.9433 131° Southeast  Level FlightAware Approximate
08:20AM -18.4410 -52.8358 131° Southeast  Level FlightAware Approximate
08:21AM -18.5297 -52.7282 131° Southeast  Level FlightAware Approximate
08:22AM -18.6183 -52.6205 131° Southeast  Level FlightAware Approximate
08:23AM -18.7068 -52.5127 131° Southeast  Level FlightAware Approximate
08:24AM -18.7953 -52.4048 131° Southeast  Level FlightAware Approximate
08:25AM -18.8837 -52.2967 131° Southeast  Level FlightAware Approximate
08:26AM -18.9720 -52.1885 131° Southeast  Level FlightAware Approximate
08:27AM -19.0603 -52.0802 131° Southeast  Level FlightAware Approximate
08:28AM -19.1485 -51.9718 131° Southeast  Level FlightAware Approximate
08:29AM -19.2367 -51.8633 131° Southeast  Level FlightAware Approximate
08:30AM -19.3247 -51.7547 131° Southeast  Level FlightAware Approximate
08:31AM -19.4128 -51.6459 131° Southeast  Level FlightAware Approximate
08:32AM -19.5007 -51.5371 131° Southeast  Level FlightAware Approximate
08:33AM -19.5886 -51.4281 131° Southeast  Level FlightAware Approximate
08:34AM -19.6764 -51.3190 131° Southeast  Level FlightAware Approximate
08:35AM -19.7642 -51.2098 131° Southeast  Level FlightAware Approximate
08:36AM -19.8519 -51.1004 130° Southeast  Level FlightAware Approximate
08:37AM -19.9395 -50.9910 130° Southeast  Level FlightAware Approximate
08:38AM -20.0271 -50.8814 130° Southeast  Level FlightAware Approximate
08:39AM -20.1146 -50.7717 130° Southeast  Level FlightAware Approximate
08:40AM -20.2020 -50.6618 130° Southeast  Level FlightAware Approximate
08:41AM -20.2894 -50.5519 130° Southeast  Level FlightAware Approximate
08:42AM -20.3766 -50.4418 130° Southeast  Level FlightAware Approximate
08:43AM -20.4639 -50.3316 130° Southeast  Level FlightAware Approximate
08:44AM -20.5510 -50.2213 130° Southeast  Level FlightAware Approximate
08:45AM -20.6381 -50.1108 130° Southeast  Level FlightAware Approximate
08:46AM -20.7251 -50.0003 130° Southeast  Level FlightAware Approximate
08:47AM -20.8120 -49.8895 130° Southeast  Level FlightAware Approximate
08:48AM -20.8989 -49.7787 130° Southeast  Level FlightAware Approximate
08:49AM -20.9857 -49.6677 130° Southeast  Level FlightAware Approximate
08:50AM -21.0724 -49.5566 130° Southeast  Level FlightAware Approximate
08:51AM -21.1591 -49.4454 130° Southeast  Level FlightAware Approximate
08:52AM -21.2456 -49.3341 130° Southeast  Level FlightAware Approximate
08:53AM -21.3321 -49.2226 130° Southeast  Level FlightAware Approximate
08:54AM -21.4186 -49.1110 130° Southeast  Level FlightAware Approximate
08:55AM -21.5049 -48.9992 130° Southeast  Level FlightAware Approximate
08:56AM -21.5912 -48.8873 130° Southeast  Level FlightAware Approximate
08:57AM -21.6774 -48.7753 130° Southeast  Level FlightAware Approximate
08:58AM -21.7636 -48.6632 130° Southeast  Level FlightAware Approximate
08:59AM -21.8496 -48.5509 130° Southeast  Level FlightAware Approximate
09:00AM -21.9356 -48.4385 130° Southeast  Level FlightAware Approximate
09:01AM -22.0215 -48.3259 129° Southeast  Level FlightAware Approximate
09:02AM -22.1095 -48.2152 132° Southeast  Level FlightAware Approximate
09:03AM -22.1970 -48.1040 129° Southeast  Level FlightAware Approximate
09:04AM -22.2813 -47.9901 131° Southeast  Level FlightAware Approximate
09:05AM -22.3696 -47.8794 129° Southeast  Level FlightAware Approximate
09:06AM -22.4549 -47.7659 129° Southeast  Level FlightAware Approximate
09:07AM -22.5400 -47.6523 129° Southeast  Level FlightAware Approximate
09:08AM -22.6224 -47.5363 127° Southeast  Level FlightAware Approximate
09:09AM -22.7035 -47.4190 127° Southeast  Level FlightAware Approximate
09:10AM -22.7882 -47.3048 129° Southeast  Level FlightAware Approximate
09:11AM -22.8735 -47.1910 129° Southeast  Level FlightAware Approximate
09:12AM -22.9626 -47.0808 134° Southeast  Level FlightAware Approximate
09:13AM -23.0535 -46.9723 128° Southeast  Level FlightAware Approximate
09:14AM -23.1374 -46.8570 128° Southeast  Level FlightAware Approximate
09:15AM -23.2096 -46.7352 132° Southeast  Level FlightAware Approximate
09:16AM -23.2984 -46.6244 129° Southeast  Level FlightAware Approximate
09:17AM -23.3839 -46.5104 129° Southeast  Level FlightAware Approximate
09:18AM -23.4167 -46.4667 129° Southeast  Level FlightAware Approximate
09:19AM -23.4321 -46.4695 129° Southeast  Level Estimated
09:20AM -23.4321 -46.4695 129° Southeast  Level Estimated
09:21AM -23.4321 -46.4695 129° Southeast  Level Estimated
09:22AM -23.4321 -46.4695 129° Southeast  Level Estimated
09:23AM -23.4321 -46.4695 129° Southeast  Level Estimated
09:24AM -23.4321 -46.4695 129° Southeast  Level Estimated
09:25AM -23.4321 -46.4695 129° Southeast  Level Estimated
09:26AM -23.4321 -46.4695 129° Southeast  Level Estimated
09:27AM -23.4321 -46.4695 129° Southeast  Level Estimated
09:28AM -23.4321 -46.4695 129° Southeast  Level Estimated